sensor_id;sensor_type;location;lat;lon;timestamp;P1;durP1;ratioP1;P2;durP2;ratioP2
21168;SDS011;10742;51.816;8.662;2023-04-01T00:01:40;6.33;;;3.43;;
21168;SDS011;10742;51.816;8.662;2023-04-01T00:05:02;8.50;;;4.73;;
21168;SDS011;10742;51.816;8.662;2023-04-01T00:08:24;6.60;;;4.33;;
21168;SDS011;10742;51.816;8.662;2023-04-01T00:11:46;7.60;;;3.33;;
21168;SDS011;10742;51.816;8.662;2023-04-01T00:15:08;6.10;;;3.80;;
21168;SDS011;10742;51.816;8.662;2023-04-01T00:18:31;6.57;;;4.77;;
21168;SDS011;10742;51.816;8.662;2023-04-01T00:21:52;3.40;;;2.73;;
21168;SDS011;10742;51.816;8.662;2023-04-01T00:25:13;6.67;;;2.83;;
21168;SDS011;10742;51.816;8.662;2023-04-01T00:28:34;7.37;;;3.80;;
21168;SDS011;10742;51.816;8.662;2023-04-01T00:31:57;6.37;;;4.30;;
21168;SDS011;10742;51.816;8.662;2023-04-01T00:35:18;3.50;;;3.13;;
21168;SDS011;10742;51.816;8.662;2023-04-01T00:38:39;3.37;;;2.70;;
21168;SDS011;10742;51.816;8.662;2023-04-01T00:42:03;8.57;;;3.13;;
21168;SDS011;10742;51.816;8.662;2023-04-01T00:45:25;3.23;;;2.13;;
21168;SDS011;10742;51.816;8.662;2023-04-01T00:48:48;1.60;;;1.57;;
21168;SDS011;10742;51.816;8.662;2023-04-01T00:52:12;2.50;;;1.83;;
21168;SDS011;10742;51.816;8.662;2023-04-01T00:55:39;3.27;;;2.17;;
21168;SDS011;10742;51.816;8.662;2023-04-01T00:59:06;2.27;;;1.80;;
21168;SDS011;10742;51.816;8.662;2023-04-01T01:02:31;1.80;;;1.70;;
21168;SDS011;10742;51.816;8.662;2023-04-01T01:13:38;1.60;;;1.43;;
21168;SDS011;10742;51.816;8.662;2023-04-01T01:29:05;1.60;;;1.53;;
21168;SDS011;10742;51.816;8.662;2023-04-01T01:36:34;2.43;;;1.60;;
21168;SDS011;10742;51.816;8.662;2023-04-01T01:40:03;1.40;;;1.30;;
21168;SDS011;10742;51.816;8.662;2023-04-01T01:43:33;2.23;;;1.37;;
21168;SDS011;10742;51.816;8.662;2023-04-01T01:47:01;2.80;;;1.47;;
21168;SDS011;10742;51.816;8.662;2023-04-01T01:50:22;1.50;;;1.40;;
21168;SDS011;10742;51.816;8.662;2023-04-01T01:53:46;2.07;;;1.63;;
21168;SDS011;10742;51.816;8.662;2023-04-01T01:57:09;4.10;;;1.67;;
21168;SDS011;10742;51.816;8.662;2023-04-01T02:00:35;2.97;;;1.73;;
21168;SDS011;10742;51.816;8.662;2023-04-01T02:03:57;2.37;;;2.03;;
21168;SDS011;10742;51.816;8.662;2023-04-01T02:07:25;7.43;;;2.77;;
21168;SDS011;10742;51.816;8.662;2023-04-01T02:11:10;4.40;;;2.20;;
21168;SDS011;10742;51.816;8.662;2023-04-01T02:18:22;2.83;;;2.53;;
21168;SDS011;10742;51.816;8.662;2023-04-01T02:21:43;2.47;;;2.27;;
21168;SDS011;10742;51.816;8.662;2023-04-01T02:25:09;2.53;;;2.33;;
21168;SDS011;10742;51.816;8.662;2023-04-01T02:28:33;4.70;;;1.80;;
21168;SDS011;10742;51.816;8.662;2023-04-01T02:31:57;2.30;;;2.13;;
21168;SDS011;10742;51.816;8.662;2023-04-01T02:35:19;2.30;;;2.07;;
21168;SDS011;10742;51.816;8.662;2023-04-01T02:38:41;2.60;;;1.77;;
21168;SDS011;10742;51.816;8.662;2023-04-01T02:42:04;3.33;;;1.80;;
21168;SDS011;10742;51.816;8.662;2023-04-01T02:45:26;1.83;;;1.60;;
21168;SDS011;10742;51.816;8.662;2023-04-01T02:48:47;2.23;;;1.97;;
21168;SDS011;10742;51.816;8.662;2023-04-01T02:52:08;2.33;;;1.77;;
21168;SDS011;10742;51.816;8.662;2023-04-01T02:55:29;2.80;;;1.63;;
21168;SDS011;10742;51.816;8.662;2023-04-01T02:58:52;3.80;;;1.73;;
21168;SDS011;10742;51.816;8.662;2023-04-01T03:02:14;2.03;;;1.47;;
21168;SDS011;10742;51.816;8.662;2023-04-01T03:05:35;1.73;;;1.67;;
21168;SDS011;10742;51.816;8.662;2023-04-01T03:08:57;1.67;;;1.60;;
21168;SDS011;10742;51.816;8.662;2023-04-01T03:12:19;3.93;;;1.70;;
21168;SDS011;10742;51.816;8.662;2023-04-01T03:15:43;2.47;;;1.63;;
21168;SDS011;10742;51.816;8.662;2023-04-01T03:19:05;1.67;;;1.50;;
21168;SDS011;10742;51.816;8.662;2023-04-01T03:22:26;2.97;;;1.80;;
21168;SDS011;10742;51.816;8.662;2023-04-01T03:25:47;2.87;;;1.97;;
21168;SDS011;10742;51.816;8.662;2023-04-01T03:29:08;2.27;;;1.97;;
21168;SDS011;10742;51.816;8.662;2023-04-01T03:32:31;2.07;;;1.70;;
21168;SDS011;10742;51.816;8.662;2023-04-01T03:35:52;2.40;;;2.23;;
21168;SDS011;10742;51.816;8.662;2023-04-01T03:39:14;1.87;;;1.77;;
21168;SDS011;10742;51.816;8.662;2023-04-01T03:42:39;3.17;;;2.23;;
21168;SDS011;10742;51.816;8.662;2023-04-01T03:46:00;4.73;;;2.40;;
21168;SDS011;10742;51.816;8.662;2023-04-01T03:49:21;2.23;;;2.03;;
21168;SDS011;10742;51.816;8.662;2023-04-01T03:52:42;2.63;;;2.30;;
21168;SDS011;10742;51.816;8.662;2023-04-01T03:56:06;2.53;;;2.33;;
21168;SDS011;10742;51.816;8.662;2023-04-01T03:59:29;4.23;;;2.50;;
21168;SDS011;10742;51.816;8.662;2023-04-01T04:02:50;2.63;;;2.43;;
21168;SDS011;10742;51.816;8.662;2023-04-01T04:06:18;2.73;;;2.47;;
21168;SDS011;10742;51.816;8.662;2023-04-01T04:09:41;5.40;;;3.70;;
21168;SDS011;10742;51.816;8.662;2023-04-01T04:13:03;6.20;;;4.23;;
21168;SDS011;10742;51.816;8.662;2023-04-01T04:16:27;5.67;;;4.40;;
21168;SDS011;10742;51.816;8.662;2023-04-01T04:19:55;9.77;;;4.80;;
21168;SDS011;10742;51.816;8.662;2023-04-01T04:23:17;5.73;;;3.73;;
21168;SDS011;10742;51.816;8.662;2023-04-01T04:26:39;5.03;;;3.60;;
21168;SDS011;10742;51.816;8.662;2023-04-01T04:30:00;4.67;;;3.43;;
21168;SDS011;10742;51.816;8.662;2023-04-01T04:33:22;6.20;;;4.73;;
21168;SDS011;10742;51.816;8.662;2023-04-01T04:36:44;5.50;;;4.57;;
21168;SDS011;10742;51.816;8.662;2023-04-01T04:40:06;14.03;;;6.47;;
21168;SDS011;10742;51.816;8.662;2023-04-01T04:43:28;15.70;;;7.50;;
21168;SDS011;10742;51.816;8.662;2023-04-01T04:46:50;16.97;;;7.93;;
21168;SDS011;10742;51.816;8.662;2023-04-01T04:50:12;12.43;;;7.33;;
21168;SDS011;10742;51.816;8.662;2023-04-01T04:53:34;32.57;;;13.30;;
21168;SDS011;10742;51.816;8.662;2023-04-01T04:56:55;19.93;;;10.27;;
21168;SDS011;10742;51.816;8.662;2023-04-01T05:00:18;20.17;;;10.70;;
21168;SDS011;10742;51.816;8.662;2023-04-01T05:03:50;19.60;;;11.40;;
21168;SDS011;10742;51.816;8.662;2023-04-01T05:07:12;26.30;;;11.77;;
21168;SDS011;10742;51.816;8.662;2023-04-01T05:10:33;31.23;;;14.17;;
21168;SDS011;10742;51.816;8.662;2023-04-01T05:13:55;35.63;;;16.40;;
21168;SDS011;10742;51.816;8.662;2023-04-01T05:17:17;35.20;;;14.47;;
21168;SDS011;10742;51.816;8.662;2023-04-01T05:20:38;28.83;;;13.30;;
21168;SDS011;10742;51.816;8.662;2023-04-01T05:24:00;37.57;;;14.40;;
21168;SDS011;10742;51.816;8.662;2023-04-01T05:27:23;36.03;;;14.40;;
21168;SDS011;10742;51.816;8.662;2023-04-01T05:30:44;63.30;;;21.80;;
21168;SDS011;10742;51.816;8.662;2023-04-01T05:34:15;41.67;;;20.33;;
21168;SDS011;10742;51.816;8.662;2023-04-01T05:37:37;33.80;;;14.73;;
21168;SDS011;10742;51.816;8.662;2023-04-01T05:40:59;27.87;;;14.77;;
21168;SDS011;10742;51.816;8.662;2023-04-01T05:44:22;37.73;;;16.73;;
21168;SDS011;10742;51.816;8.662;2023-04-01T05:47:55;18.27;;;10.33;;
21168;SDS011;10742;51.816;8.662;2023-04-01T05:51:16;29.13;;;15.23;;
21168;SDS011;10742;51.816;8.662;2023-04-01T05:54:38;57.77;;;21.00;;
21168;SDS011;10742;51.816;8.662;2023-04-01T05:57:59;77.00;;;24.03;;
21168;SDS011;10742;51.816;8.662;2023-04-01T06:01:21;36.07;;;19.57;;
21168;SDS011;10742;51.816;8.662;2023-04-01T06:04:42;108.67;;;34.00;;
21168;SDS011;10742;51.816;8.662;2023-04-01T06:08:16;67.10;;;22.50;;
21168;SDS011;10742;51.816;8.662;2023-04-01T06:11:57;49.13;;;21.77;;
21168;SDS011;10742;51.816;8.662;2023-04-01T06:22:53;75.63;;;29.37;;
21168;SDS011;10742;51.816;8.662;2023-04-01T06:30:10;65.03;;;25.17;;
21168;SDS011;10742;51.816;8.662;2023-04-01T06:37:47;100.87;;;39.40;;
21168;SDS011;10742;51.816;8.662;2023-04-01T06:41:46;167.33;;;56.10;;
21168;SDS011;10742;51.816;8.662;2023-04-01T06:45:57;160.63;;;63.03;;
21168;SDS011;10742;51.816;8.662;2023-04-01T06:49:41;283.97;;;86.70;;
21168;SDS011;10742;51.816;8.662;2023-04-01T06:53:54;257.90;;;88.37;;
21168;SDS011;10742;51.816;8.662;2023-04-01T06:57:43;150.13;;;59.17;;
21168;SDS011;10742;51.816;8.662;2023-04-01T07:01:08;145.53;;;53.10;;
21168;SDS011;10742;51.816;8.662;2023-04-01T07:04:35;179.80;;;55.87;;
21168;SDS011;10742;51.816;8.662;2023-04-01T07:08:04;110.90;;;36.17;;
21168;SDS011;10742;51.816;8.662;2023-04-01T07:11:31;108.43;;;44.00;;
21168;SDS011;10742;51.816;8.662;2023-04-01T07:15:16;111.73;;;40.73;;
21168;SDS011;10742;51.816;8.662;2023-04-01T07:18:50;109.70;;;37.17;;
21168;SDS011;10742;51.816;8.662;2023-04-01T07:22:56;69.83;;;29.77;;
21168;SDS011;10742;51.816;8.662;2023-04-01T07:26:43;41.33;;;15.37;;
21168;SDS011;10742;51.816;8.662;2023-04-01T07:30:16;62.37;;;25.80;;
21168;SDS011;10742;51.816;8.662;2023-04-01T07:33:44;84.80;;;37.07;;
21168;SDS011;10742;51.816;8.662;2023-04-01T07:37:30;112.10;;;38.80;;
21168;SDS011;10742;51.816;8.662;2023-04-01T07:40:58;120.30;;;43.50;;
21168;SDS011;10742;51.816;8.662;2023-04-01T07:48:31;82.00;;;35.90;;
21168;SDS011;10742;51.816;8.662;2023-04-01T07:52:06;116.20;;;43.60;;
21168;SDS011;10742;51.816;8.662;2023-04-01T07:55:42;151.80;;;50.40;;
21168;SDS011;10742;51.816;8.662;2023-04-01T07:59:21;275.87;;;94.07;;
21168;SDS011;10742;51.816;8.662;2023-04-01T08:14:27;125.40;;;48.50;;
21168;SDS011;10742;51.816;8.662;2023-04-01T08:18:11;253.67;;;83.63;;
21168;SDS011;10742;51.816;8.662;2023-04-01T08:21:52;276.47;;;93.30;;
21168;SDS011;10742;51.816;8.662;2023-04-01T08:25:25;174.33;;;68.67;;
21168;SDS011;10742;51.816;8.662;2023-04-01T08:28:54;316.20;;;105.57;;
21168;SDS011;10742;51.816;8.662;2023-04-01T08:32:28;246.60;;;80.40;;
21168;SDS011;10742;51.816;8.662;2023-04-01T08:39:31;195.10;;;75.07;;
21168;SDS011;10742;51.816;8.662;2023-04-01T08:43:02;187.63;;;59.53;;
21168;SDS011;10742;51.816;8.662;2023-04-01T08:50:21;273.90;;;94.33;;
21168;SDS011;10742;51.816;8.662;2023-04-01T09:05:47;138.13;;;59.93;;
21168;SDS011;10742;51.816;8.662;2023-04-01T09:13:19;243.00;;;79.50;;
21168;SDS011;10742;51.816;8.662;2023-04-01T09:17:09;224.87;;;79.73;;
21168;SDS011;10742;51.816;8.662;2023-04-01T09:20:47;134.13;;;47.90;;
21168;SDS011;10742;51.816;8.662;2023-04-01T09:28:06;264.40;;;87.13;;
21168;SDS011;10742;51.816;8.662;2023-04-01T09:43:02;298.37;;;121.70;;
21168;SDS011;10742;51.816;8.662;2023-04-01T10:02:28;383.20;;;136.63;;
21168;SDS011;10742;51.816;8.662;2023-04-01T10:13:46;211.37;;;76.93;;
21168;SDS011;10742;51.816;8.662;2023-04-01T10:21:00;279.47;;;99.17;;
21168;SDS011;10742;51.816;8.662;2023-04-01T10:24:45;192.90;;;71.77;;
21168;SDS011;10742;51.816;8.662;2023-04-01T10:36:40;182.37;;;64.83;;
21168;SDS011;10742;51.816;8.662;2023-04-01T10:40:45;209.30;;;77.50;;
21168;SDS011;10742;51.816;8.662;2023-04-01T10:44:38;272.33;;;96.63;;
21168;SDS011;10742;51.816;8.662;2023-04-01T10:48:47;200.30;;;77.53;;
21168;SDS011;10742;51.816;8.662;2023-04-01T11:04:48;297.30;;;97.17;;
21168;SDS011;10742;51.816;8.662;2023-04-01T11:09:10;238.20;;;86.43;;
21168;SDS011;10742;51.816;8.662;2023-04-01T11:25:09;258.40;;;95.37;;
21168;SDS011;10742;51.816;8.662;2023-04-01T11:28:38;158.50;;;60.33;;
21168;SDS011;10742;51.816;8.662;2023-04-01T11:32:42;338.97;;;109.50;;
21168;SDS011;10742;51.816;8.662;2023-04-01T11:36:08;332.50;;;121.27;;
21168;SDS011;10742;51.816;8.662;2023-04-01T11:47:55;502.17;;;187.63;;
21168;SDS011;10742;51.816;8.662;2023-04-01T11:55:35;356.63;;;127.23;;
21168;SDS011;10742;51.816;8.662;2023-04-01T12:03:21;102.63;;;34.57;;
21168;SDS011;10742;51.816;8.662;2023-04-01T12:07:06;209.17;;;79.33;;
21168;SDS011;10742;51.816;8.662;2023-04-01T12:10:46;124.83;;;46.30;;
21168;SDS011;10742;51.816;8.662;2023-04-01T12:14:27;328.77;;;106.77;;
21168;SDS011;10742;51.816;8.662;2023-04-01T12:21:54;260.17;;;85.30;;
21168;SDS011;10742;51.816;8.662;2023-04-01T12:25:42;233.73;;;76.63;;
21168;SDS011;10742;51.816;8.662;2023-04-01T12:33:18;272.73;;;93.60;;
21168;SDS011;10742;51.816;8.662;2023-04-01T12:36:59;286.10;;;99.80;;
21168;SDS011;10742;51.816;8.662;2023-04-01T12:44:31;292.33;;;102.87;;
21168;SDS011;10742;51.816;8.662;2023-04-01T12:48:09;295.93;;;101.07;;
21168;SDS011;10742;51.816;8.662;2023-04-01T12:52:10;171.67;;;55.47;;
21168;SDS011;10742;51.816;8.662;2023-04-01T12:59:01;148.40;;;47.40;;
21168;SDS011;10742;51.816;8.662;2023-04-01T13:03:00;228.60;;;85.03;;
21168;SDS011;10742;51.816;8.662;2023-04-01T13:06:44;253.57;;;83.67;;
21168;SDS011;10742;51.816;8.662;2023-04-01T13:17:20;238.27;;;83.40;;
21168;SDS011;10742;51.816;8.662;2023-04-01T13:27:59;240.87;;;92.30;;
21168;SDS011;10742;51.816;8.662;2023-04-01T13:39:10;284.57;;;98.87;;
21168;SDS011;10742;51.816;8.662;2023-04-01T13:47:05;271.87;;;98.33;;
21168;SDS011;10742;51.816;8.662;2023-04-01T13:54:41;821.80;;;258.90;;
21168;SDS011;10742;51.816;8.662;2023-04-01T14:10:06;407.27;;;149.30;;
21168;SDS011;10742;51.816;8.662;2023-04-01T14:20:33;605.10;;;197.03;;
21168;SDS011;10742;51.816;8.662;2023-04-01T14:46:41;454.00;;;157.93;;
21168;SDS011;10742;51.816;8.662;2023-04-01T14:50:23;387.07;;;129.70;;
21168;SDS011;10742;51.816;8.662;2023-04-01T14:53:58;440.23;;;152.13;;
21168;SDS011;10742;51.816;8.662;2023-04-01T14:57:33;482.90;;;154.50;;
21168;SDS011;10742;51.816;8.662;2023-04-01T15:01:13;519.80;;;179.57;;
21168;SDS011;10742;51.816;8.662;2023-04-01T15:08:26;504.27;;;181.63;;
21168;SDS011;10742;51.816;8.662;2023-04-01T15:15:16;779.93;;;252.20;;
21168;SDS011;10742;51.816;8.662;2023-04-01T15:22:36;724.50;;;233.40;;
21168;SDS011;10742;51.816;8.662;2023-04-01T15:33:29;866.90;;;282.73;;
21168;SDS011;10742;51.816;8.662;2023-04-01T15:36:57;859.17;;;280.40;;
21168;SDS011;10742;51.816;8.662;2023-04-01T15:40:24;962.00;;;289.10;;
21168;SDS011;10742;51.816;8.662;2023-04-01T15:43:49;1168.10;;;320.03;;
21168;SDS011;10742;51.816;8.662;2023-04-01T15:48:01;814.67;;;272.63;;
21168;SDS011;10742;51.816;8.662;2023-04-01T15:51:10;975.30;;;298.93;;
21168;SDS011;10742;51.816;8.662;2023-04-01T15:54:54;1064.77;;;328.47;;
21168;SDS011;10742;51.816;8.662;2023-04-01T16:02:13;1143.37;;;346.70;;
21168;SDS011;10742;51.816;8.662;2023-04-01T16:17:11;533.20;;;185.73;;
21168;SDS011;10742;51.816;8.662;2023-04-01T16:20:44;552.93;;;178.83;;
21168;SDS011;10742;51.816;8.662;2023-04-01T16:31:46;885.93;;;274.93;;
21168;SDS011;10742;51.816;8.662;2023-04-01T16:39:08;626.97;;;211.53;;
21168;SDS011;10742;51.816;8.662;2023-04-01T16:42:50;765.53;;;239.50;;
21168;SDS011;10742;51.816;8.662;2023-04-01T16:46:20;739.93;;;261.03;;
21168;SDS011;10742;51.816;8.662;2023-04-01T16:49:53;923.07;;;279.67;;
21168;SDS011;10742;51.816;8.662;2023-04-01T16:53:41;627.10;;;205.00;;
21168;SDS011;10742;51.816;8.662;2023-04-01T17:00:49;581.20;;;191.60;;
21168;SDS011;10742;51.816;8.662;2023-04-01T17:12:10;347.97;;;124.73;;
21168;SDS011;10742;51.816;8.662;2023-04-01T17:15:52;433.03;;;159.60;;
21168;SDS011;10742;51.816;8.662;2023-04-01T17:23:27;684.60;;;223.10;;
21168;SDS011;10742;51.816;8.662;2023-04-01T17:26:51;714.63;;;216.47;;
21168;SDS011;10742;51.816;8.662;2023-04-01T17:30:19;782.37;;;262.93;;
21168;SDS011;10742;51.816;8.662;2023-04-01T17:37:15;669.47;;;219.57;;
21168;SDS011;10742;51.816;8.662;2023-04-01T17:43:41;846.37;;;257.83;;
21168;SDS011;10742;51.816;8.662;2023-04-01T17:47:15;944.90;;;268.40;;
21168;SDS011;10742;51.816;8.662;2023-04-01T17:56:59;951.37;;;276.87;;
21168;SDS011;10742;51.816;8.662;2023-04-01T18:00:33;872.13;;;265.87;;
21168;SDS011;10742;51.816;8.662;2023-04-01T18:04:05;567.90;;;169.83;;
21168;SDS011;10742;51.816;8.662;2023-04-01T18:12:05;564.63;;;180.63;;
21168;SDS011;10742;51.816;8.662;2023-04-01T18:18:35;689.97;;;206.33;;
21168;SDS011;10742;51.816;8.662;2023-04-01T18:21:49;592.17;;;202.60;;
21168;SDS011;10742;51.816;8.662;2023-04-01T18:31:18;488.37;;;158.20;;
21168;SDS011;10742;51.816;8.662;2023-04-01T18:34:43;535.67;;;164.17;;
21168;SDS011;10742;51.816;8.662;2023-04-01T18:38:13;260.30;;;93.20;;
21168;SDS011;10742;51.816;8.662;2023-04-01T18:45:18;244.53;;;81.47;;
21168;SDS011;10742;51.816;8.662;2023-04-01T18:48:57;201.13;;;66.67;;
21168;SDS011;10742;51.816;8.662;2023-04-01T18:52:21;242.73;;;82.90;;
21168;SDS011;10742;51.816;8.662;2023-04-01T18:58:48;411.73;;;132.40;;
21168;SDS011;10742;51.816;8.662;2023-04-01T19:02:16;429.63;;;130.03;;
21168;SDS011;10742;51.816;8.662;2023-04-01T19:05:42;317.63;;;86.87;;
21168;SDS011;10742;51.816;8.662;2023-04-01T19:08:48;192.30;;;69.97;;
21168;SDS011;10742;51.816;8.662;2023-04-01T19:15:25;179.57;;;56.43;;
21168;SDS011;10742;51.816;8.662;2023-04-01T19:26:11;71.40;;;24.30;;
21168;SDS011;10742;51.816;8.662;2023-04-01T19:29:32;527.77;;;75.63;;
21168;SDS011;10742;51.816;8.662;2023-04-01T19:36:25;96.43;;;34.60;;
21168;SDS011;10742;51.816;8.662;2023-04-01T19:43:01;65.23;;;29.00;;
21168;SDS011;10742;51.816;8.662;2023-04-01T19:46:18;117.90;;;36.50;;
21168;SDS011;10742;51.816;8.662;2023-04-01T19:53:25;37.97;;;16.60;;
21168;SDS011;10742;51.816;8.662;2023-04-01T19:56:42;226.03;;;34.27;;
21168;SDS011;10742;51.816;8.662;2023-04-01T20:03:41;128.50;;;28.37;;
21168;SDS011;10742;51.816;8.662;2023-04-01T20:16:20;180.47;;;43.63;;
21168;SDS011;10742;51.816;8.662;2023-04-01T20:19:28;45.50;;;11.90;;
21168;SDS011;10742;51.816;8.662;2023-04-01T20:26:09;47.87;;;17.47;;
21168;SDS011;10742;51.816;8.662;2023-04-01T20:29:18;10.53;;;5.67;;
21168;SDS011;10742;51.816;8.662;2023-04-01T20:36:11;11.20;;;6.93;;
21168;SDS011;10742;51.816;8.662;2023-04-01T20:46:18;9.73;;;6.83;;
21168;SDS011;10742;51.816;8.662;2023-04-01T20:56:06;4.97;;;3.87;;
21168;SDS011;10742;51.816;8.662;2023-04-01T20:59:31;70.97;;;10.03;;
21168;SDS011;10742;51.816;8.662;2023-04-01T21:03:03;10.03;;;4.90;;
21168;SDS011;10742;51.816;8.662;2023-04-01T21:06:32;2.67;;;2.30;;
21168;SDS011;10742;51.816;8.662;2023-04-01T21:09:52;3.27;;;3.00;;
21168;SDS011;10742;51.816;8.662;2023-04-01T21:19:51;403.50;;;32.73;;
21168;SDS011;10742;51.816;8.662;2023-04-01T21:23:16;3.97;;;2.77;;
21168;SDS011;10742;51.816;8.662;2023-04-01T21:26:52;134.13;;;7.43;;
21168;SDS011;10742;51.816;8.662;2023-04-01T21:33:54;4.90;;;2.70;;
21168;SDS011;10742;51.816;8.662;2023-04-01T21:40:35;215.07;;;14.40;;
21168;SDS011;10742;51.816;8.662;2023-04-01T21:44:05;7.23;;;2.87;;
21168;SDS011;10742;51.816;8.662;2023-04-01T21:51:10;2.90;;;2.37;;
21168;SDS011;10742;51.816;8.662;2023-04-01T21:54:35;2.13;;;2.00;;
21168;SDS011;10742;51.816;8.662;2023-04-01T21:58:27;3.57;;;2.73;;
21168;SDS011;10742;51.816;8.662;2023-04-01T22:04:56;99.00;;;7.00;;
21168;SDS011;10742;51.816;8.662;2023-04-01T22:15:05;2.17;;;1.97;;
21168;SDS011;10742;51.816;8.662;2023-04-01T22:21:38;491.17;;;41.80;;
21168;SDS011;10742;51.816;8.662;2023-04-01T22:25:18;381.03;;;27.33;;
21168;SDS011;10742;51.816;8.662;2023-04-01T22:28:22;2.37;;;2.17;;
21168;SDS011;10742;51.816;8.662;2023-04-01T22:31:36;14.30;;;3.57;;
21168;SDS011;10742;51.816;8.662;2023-04-01T22:49:17;28.80;;;4.67;;
21168;SDS011;10742;51.816;8.662;2023-04-01T22:52:33;4.03;;;2.20;;
21168;SDS011;10742;51.816;8.662;2023-04-01T22:55:42;17.37;;;3.47;;
21168;SDS011;10742;51.816;8.662;2023-04-01T23:02:27;3.97;;;2.43;;
21168;SDS011;10742;51.816;8.662;2023-04-01T23:05:33;8.00;;;3.10;;
21168;SDS011;10742;51.816;8.662;2023-04-01T23:08:58;3.60;;;2.00;;
21168;SDS011;10742;51.816;8.662;2023-04-01T23:12:14;294.07;;;20.57;;
21168;SDS011;10742;51.816;8.662;2023-04-01T23:15:20;345.60;;;26.47;;
21168;SDS011;10742;51.816;8.662;2023-04-01T23:21:47;3.07;;;2.20;;
21168;SDS011;10742;51.816;8.662;2023-04-01T23:24:55;5.03;;;2.40;;
21168;SDS011;10742;51.816;8.662;2023-04-01T23:31:48;4.70;;;2.87;;
21168;SDS011;10742;51.816;8.662;2023-04-01T23:35:02;20.67;;;3.40;;
21168;SDS011;10742;51.816;8.662;2023-04-01T23:38:04;3.03;;;2.03;;
21168;SDS011;10742;51.816;8.662;2023-04-01T23:41:07;8.63;;;3.77;;
21168;SDS011;10742;51.816;8.662;2023-04-01T23:44:22;56.63;;;4.87;;
21168;SDS011;10742;51.816;8.662;2023-04-01T23:47:31;2.67;;;1.93;;
21168;SDS011;10742;51.816;8.662;2023-04-01T23:50:36;29.97;;;3.30;;
21168;SDS011;10742;51.816;8.662;2023-04-01T23:53:41;2.37;;;2.10;;
21168;SDS011;10742;51.816;8.662;2023-04-01T23:56:48;2.60;;;2.17;;
